Time;durP1;ratioP1;P1;durP2;ratioP2;P2;SDS_P1;SDS_P2;PMS_P1;PMS_P2;Temp;Humidity;BMP_temperature;BMP_pressure;BME280_temperature;BME280_humidity;BME280_pressure;Samples;Min_cycle;Max_cycle;Signal;HPM_P1;HPM_P2
2023/01/18 00:00:36;;;;;;;14.65;7.05;;;;;;;-143.48;81.20;118439.88;5033109;28;20025;-39
2023/01/18 00:03:01;;;;;;;13.85;6.55;;;;;;;-143.48;81.94;118439.88;5032797;28;20416;-38
2023/01/18 00:05:26;;;;;;;11.73;6.57;;;;;;;-143.48;82.70;118439.88;5032921;28;20037;-39
2023/01/18 00:07:52;;;;;;;13.27;6.15;;;;;;;-143.48;83.03;118439.88;5032901;28;20032;-39
2023/01/18 00:10:17;;;;;;;15.18;7.20;;;;;;;-143.48;83.38;118439.88;5016260;28;20112;-39
2023/01/18 00:12:43;;;;;;;15.20;7.25;;;;;;;-143.48;83.62;118439.88;5033328;28;20017;-39
2023/01/18 00:15:09;;;;;;;16.65;6.90;;;;;;;-143.48;83.56;118439.88;5033127;28;20029;-38
2023/01/18 00:17:46;;;;;;;13.85;6.38;;;;;;;-143.48;83.82;118439.88;5033132;28;20125;-38
2023/01/18 00:20:14;;;;;;;13.00;6.60;;;;;;;-143.48;83.98;118439.88;5034207;28;20049;-39
2023/01/18 00:22:39;;;;;;;14.02;6.57;;;;;;;-143.48;84.16;118439.88;5036205;28;20063;-38
2023/01/18 00:25:05;;;;;;;12.20;6.20;;;;;;;-143.48;82.42;118439.88;5036636;28;20025;-39
2023/01/18 00:27:30;;;;;;;14.70;6.60;;;;;;;-143.48;81.97;118439.88;5036570;28;20101;-39
2023/01/18 00:29:58;;;;;;;14.68;6.22;;;;;;;-143.48;81.94;118439.88;5036288;28;20036;-38
2023/01/18 00:32:23;;;;;;;11.93;6.45;;;;;;;-143.48;82.15;118439.88;5036436;28;20376;-38
2023/01/18 00:34:49;;;;;;;11.90;6.45;;;;;;;-143.48;82.42;118439.88;5036123;28;20032;-38
2023/01/18 00:37:14;;;;;;;13.00;6.43;;;;;;;-143.48;82.85;118439.88;5036308;28;20113;-38
2023/01/18 00:39:40;;;;;;;12.65;5.78;;;;;;;-143.48;83.02;118439.88;5036114;28;20048;-39
2023/01/18 00:44:49;;;;;;;13.02;6.10;;;;;;;-143.48;82.68;118439.88;5035894;28;20060;-38
2023/01/18 00:47:14;;;;;;;11.95;5.95;;;;;;;-143.48;82.87;118439.88;5035893;28;20025;-39
2023/01/18 00:49:39;;;;;;;14.00;6.03;;;;;;;-143.48;82.04;118439.88;5036040;28;20033;-38
2023/01/18 00:52:05;;;;;;;11.27;5.70;;;;;;;-143.48;82.32;118439.88;5035842;28;20538;-38
2023/01/18 00:54:30;;;;;;;9.48;5.35;;;;;;;-143.48;82.59;118439.88;5036058;28;20017;-39
2023/01/18 00:56:55;;;;;;;12.70;5.65;;;;;;;-143.48;82.51;118439.88;5035771;28;20025;-38
2023/01/18 00:59:21;;;;;;;12.68;6.18;;;;;;;-143.48;82.43;118439.88;5035598;28;20107;-38
2023/01/18 01:01:46;;;;;;;12.23;5.88;;;;;;;-143.48;82.96;118439.88;5035613;28;20484;-39
2023/01/18 01:06:55;;;;;;;12.93;6.05;;;;;;;-143.48;82.41;118439.88;5036057;28;20040;-39
2023/01/18 01:09:25;;;;;;;11.00;6.00;;;;;;;-143.48;81.37;118439.88;5035762;28;20033;-39
2023/01/18 01:28:20;;;;;;;11.60;5.55;;;;;;;-143.48;81.26;118439.88;5035502;28;20041;-39
2023/01/18 01:30:46;;;;;;;10.68;5.60;;;;;;;-143.48;80.83;118439.88;5035107;28;20029;-39
2023/01/18 01:33:14;;;;;;;15.15;5.78;;;;;;;-143.48;80.89;118439.88;5034573;28;20052;-38
2023/01/18 01:35:39;;;;;;;13.82;5.90;;;;;;;-143.48;80.66;118439.88;5034985;28;20017;-39
2023/01/18 01:38:05;;;;;;;11.13;6.20;;;;;;;-143.48;81.49;118439.88;5035251;28;20025;-38
2023/01/18 01:40:30;;;;;;;11.32;5.50;;;;;;;-143.48;81.95;118439.88;5035163;28;20108;-39
2023/01/18 01:42:56;;;;;;;11.00;5.88;;;;;;;-143.48;81.55;118439.88;5034847;28;20021;-38
2023/01/18 01:45:26;;;;;;;10.98;5.55;;;;;;;-143.48;81.04;118439.88;5035117;28;20029;-39
2023/01/18 01:47:53;;;;;;;13.35;5.82;;;;;;;-143.48;81.05;118439.88;5035672;28;20056;-39
2023/01/18 01:50:33;;;;;;;13.32;5.40;;;;;;;-143.48;81.01;118439.88;5034557;28;20108;-39
2023/01/18 01:52:58;;;;;;;11.30;5.75;;;;;;;-143.48;80.45;118439.88;5034679;28;20013;-38
2023/01/18 01:55:29;;;;;;;11.50;5.40;;;;;;;-143.48;81.07;118439.88;5034902;28;20380;-38
2023/01/18 01:57:57;;;;;;;13.00;5.78;;;;;;;-143.48;81.57;118439.88;5034721;28;20034;-39
2023/01/18 02:00:23;;;;;;;9.88;5.65;;;;;;;-143.48;81.37;118439.88;5034740;28;20048;-39
2023/01/18 02:03:09;;;;;;;10.85;5.20;;;;;;;-143.48;81.55;118439.88;5034833;28;20032;-38
2023/01/18 02:05:41;;;;;;;12.27;5.60;;;;;;;-143.48;81.52;118439.88;5034473;28;20037;-38
2023/01/18 02:08:10;;;;;;;13.02;5.43;;;;;;;-143.48;82.14;118439.88;5034946;28;20031;-38
2023/01/18 02:10:36;;;;;;;11.77;5.32;;;;;;;-143.48;81.52;118439.88;5034852;28;20052;-38
2023/01/18 02:13:04;;;;;;;11.05;5.53;;;;;;;-143.48;81.92;118439.88;5033687;28;20113;-39
2023/01/18 02:16:05;;;;;;;10.27;5.40;;;;;;;-143.48;81.52;118439.88;5033784;28;20028;-39
2023/01/18 02:18:39;;;;;;;9.85;4.97;;;;;;;-143.48;80.32;118439.88;5033721;28;20075;-38
2023/01/18 02:21:14;;;;;;;14.05;5.10;;;;;;;-143.48;80.63;118439.88;5033733;28;20029;-38
2023/01/18 02:23:54;;;;;;;10.05;5.40;;;;;;;-143.48;80.58;118439.88;5033437;28;20037;-38
2023/01/18 02:26:50;;;;;;;12.43;5.50;;;;;;;-143.48;79.85;118439.88;5033889;28;20029;-38
2023/01/18 02:29:19;;;;;;;10.30;5.18;;;;;;;-143.48;80.12;118439.88;5034034;28;20025;-39
2023/01/18 02:32:16;;;;;;;13.10;5.50;;;;;;;-143.48;80.41;118439.88;5033996;28;20025;-38
2023/01/18 02:34:48;;;;;;;10.43;5.25;;;;;;;-143.48;80.94;118439.88;5033854;28;20029;-38
2023/01/18 02:37:29;;;;;;;10.38;5.55;;;;;;;-143.48;80.68;118439.88;5034162;28;20022;-38
2023/01/18 02:40:03;;;;;;;9.60;4.82;;;;;;;-143.48;80.54;118439.88;5034078;28;20040;-38
2023/01/18 02:48:24;;;;;;;11.43;4.97;;;;;;;-143.48;79.94;118439.88;5034284;28;20056;-38
2023/01/18 02:50:50;;;;;;;11.88;5.35;;;;;;;-143.48;79.56;118439.88;5033896;28;20563;-38
2023/01/18 02:53:15;;;;;;;11.18;4.95;;;;;;;-143.48;79.68;118439.88;5033622;28;20049;-38
2023/01/18 02:56:13;;;;;;;10.93;4.78;;;;;;;-143.48;79.60;118439.88;5034115;28;20068;-38
2023/01/18 02:58:55;;;;;;;9.15;4.88;;;;;;;-143.48;79.24;118439.88;5022672;28;20049;-39
2023/01/18 03:01:30;;;;;;;10.13;4.90;;;;;;;-143.48;79.58;118439.88;5016207;28;20021;-42
2023/01/18 03:03:59;;;;;;;10.45;5.10;;;;;;;-143.48;79.53;118439.88;5033395;28;20053;-38
2023/01/18 03:06:27;;;;;;;10.68;4.82;;;;;;;-143.48;79.43;118439.88;5033826;28;20526;-39
2023/01/18 03:08:55;;;;;;;7.40;4.55;;;;;;;-143.48;80.00;118439.88;5033386;28;20104;-38
2023/01/18 03:11:52;;;;;;;10.27;5.10;;;;;;;-143.48;79.98;118439.88;5033456;28;20025;-39
2023/01/18 03:14:26;;;;;;;11.80;5.03;;;;;;;-143.48;79.82;118439.88;5033643;28;20080;-39
2023/01/18 03:17:00;;;;;;;10.98;4.80;;;;;;;-143.48;79.31;118439.88;5033351;28;20037;-38
2023/01/18 03:23:36;;;;;;;8.32;4.53;;;;;;;-143.48;79.74;118439.88;5033707;28;20037;-38
2023/01/18 03:25:12;;;;;;;10.90;4.60;;;;;;;-143.48;78.81;118439.88;5033382;28;20042;-38
2023/01/18 03:35:54;;;;;;;10.90;4.57;;;;;;;-143.48;80.00;118439.88;5033551;28;20048;-38
2023/01/18 03:38:20;;;;;;;8.93;4.72;;;;;;;-143.48;79.51;118439.88;5015503;28;20036;-39
2023/01/18 03:40:46;;;;;;;11.13;4.68;;;;;;;-143.48;79.33;118439.88;5033615;28;20036;-38
2023/01/18 03:43:16;;;;;;;8.18;4.47;;;;;;;-143.48;78.33;118439.88;5033311;28;20387;-38
2023/01/18 03:45:43;;;;;;;8.95;4.40;;;;;;;-143.48;78.51;118439.88;5033104;28;20044;-38
2023/01/18 03:48:10;;;;;;;9.68;4.20;;;;;;;-143.48;77.83;118439.88;5033617;28;20464;-38
2023/01/18 03:50:53;;;;;;;9.75;4.68;;;;;;;-143.48;77.83;118439.88;5032909;28;20084;-38
2023/01/18 03:53:39;;;;;;;7.97;4.40;;;;;;;-143.48;77.94;118439.88;5033334;28;20025;-39
2023/01/18 03:56:19;;;;;;;10.07;4.63;;;;;;;-143.48;78.56;118439.88;5035888;28;20036;-39
2023/01/18 03:58:48;;;;;;;9.23;4.43;;;;;;;-143.48;78.72;118439.88;5036659;28;20049;-38
2023/01/18 04:01:13;;;;;;;9.77;4.72;;;;;;;-143.48;78.61;118439.88;5037216;28;20033;-38
2023/01/18 04:03:38;;;;;;;9.40;4.53;;;;;;;-143.48;78.61;118439.88;5037175;28;20360;-38
2023/01/18 04:06:06;;;;;;;8.63;4.38;;;;;;;-143.48;78.30;118439.88;5018966;28;20076;-38
2023/01/18 04:08:32;;;;;;;9.52;4.40;;;;;;;-143.48;79.62;118439.88;5036635;28;20041;-38
2023/01/18 04:10:57;;;;;;;9.63;4.78;;;;;;;-143.48;79.54;118439.88;5036599;28;20032;-38
2023/01/18 04:13:22;;;;;;;9.10;4.70;;;;;;;-143.48;79.12;118439.88;5036875;28;20082;-38
2023/01/18 04:15:48;;;;;;;10.73;5.30;;;;;;;-143.48;79.01;118439.88;5036434;28;20059;-39
2023/01/18 04:18:13;;;;;;;8.68;4.78;;;;;;;-143.48;79.98;118439.88;5036697;28;20051;-38
2023/01/18 04:20:38;;;;;;;7.60;4.40;;;;;;;-143.48;79.70;118439.88;5018743;28;20021;-39
2023/01/18 04:23:04;;;;;;;7.53;4.55;;;;;;;-143.48;78.78;118439.88;5036605;28;20030;-38
2023/01/18 04:25:29;;;;;;;12.65;4.70;;;;;;;-143.48;79.63;118439.88;5036604;28;20018;-39
2023/01/18 04:27:55;;;;;;;9.27;4.60;;;;;;;-143.48;79.67;118439.88;5018535;28;20033;-39
2023/01/18 04:30:20;;;;;;;12.02;4.93;;;;;;;-143.48;79.01;118439.88;5036478;28;20067;-39
2023/01/18 04:32:46;;;;;;;9.77;4.88;;;;;;;-143.48;78.56;118439.88;5036449;28;20467;-39
2023/01/18 04:35:12;;;;;;;10.38;4.97;;;;;;;-143.48;78.52;118439.88;5036066;28;20383;-38
2023/01/18 04:37:37;;;;;;;9.85;4.78;;;;;;;-143.48;79.36;118439.88;5036146;28;20029;-39
2023/01/18 04:40:04;;;;;;;8.93;4.68;;;;;;;-143.48;80.02;118439.88;5035988;28;20383;-38
2023/01/18 04:42:29;;;;;;;11.15;4.72;;;;;;;-143.48;80.12;118439.88;5035912;28;20388;-38
2023/01/18 04:44:55;;;;;;;13.43;5.00;;;;;;;-143.48;79.85;118439.88;5035925;28;20026;-38
2023/01/18 04:47:20;;;;;;;7.18;3.95;;;;;;;-143.48;79.08;118439.88;5018129;28;20128;-39
2023/01/18 04:49:45;;;;;;;8.60;4.65;;;;;;;-143.48;78.43;118439.88;5036005;28;20530;-38
2023/01/18 04:52:11;;;;;;;13.80;5.20;;;;;;;-143.48;78.96;118439.88;5035850;28;20026;-39
2023/01/18 04:54:36;;;;;;;9.43;4.88;;;;;;;-143.48;79.43;118439.88;5035742;28;20029;-38
2023/01/18 04:57:01;;;;;;;11.23;5.15;;;;;;;-143.48;79.84;118439.88;5035683;28;20052;-39
2023/01/18 04:59:30;;;;;;;9.82;4.97;;;;;;;-143.48;79.84;118439.88;5035586;28;20053;-39
2023/01/18 05:01:55;;;;;;;8.32;4.95;;;;;;;-143.48;80.08;118439.88;5035773;28;20068;-38
2023/01/18 05:04:20;;;;;;;11.40;5.20;;;;;;;-143.48;79.25;118439.88;5035887;28;20025;-38
2023/01/18 05:06:48;;;;;;;10.77;5.07;;;;;;;-143.48;79.44;118439.88;5035633;28;20087;-38
2023/01/18 05:09:14;;;;;;;12.45;4.88;;;;;;;-143.48;79.06;118439.88;5017628;28;20087;-38
2023/01/18 05:11:41;;;;;;;9.65;4.97;;;;;;;-143.48;79.24;118439.88;5035495;28;20025;-38
2023/01/18 05:14:07;;;;;;;10.20;4.80;;;;;;;-143.48;79.48;118439.88;5035364;28;20029;-38
2023/01/18 05:16:32;;;;;;;10.20;4.60;;;;;;;-143.48;79.55;118439.88;5035283;28;20074;-38
2023/01/18 05:18:57;;;;;;;9.68;5.00;;;;;;;-143.48;79.48;118439.88;5035528;28;20112;-38
2023/01/18 05:21:23;;;;;;;11.38;5.55;;;;;;;-143.48;79.09;118439.88;5035300;28;20018;-38
2023/01/18 05:23:48;;;;;;;12.57;4.80;;;;;;;-143.48;78.64;118439.88;5035150;28;20109;-38
2023/01/18 05:26:19;;;;;;;8.32;4.50;;;;;;;-143.48;78.98;118439.88;5035146;28;20025;-38
2023/01/18 05:28:45;;;;;;;9.32;5.20;;;;;;;-143.48;79.64;118439.88;5035125;28;20021;-38
2023/01/18 05:31:11;;;;;;;14.40;5.38;;;;;;;-143.48;80.03;118439.88;5035009;28;20029;-39
2023/01/18 05:33:36;;;;;;;11.70;5.05;;;;;;;-143.48;80.16;118439.88;5035301;28;20014;-38
2023/01/18 05:36:02;;;;;;;11.57;5.30;;;;;;;-143.48;80.00;118439.88;5035244;28;20136;-38
2023/01/18 05:38:28;;;;;;;16.02;5.70;;;;;;;-143.48;80.28;118439.88;5034898;28;20037;-38
2023/01/18 05:40:53;;;;;;;8.50;5.03;;;;;;;-143.48;80.46;118439.88;5035045;28;20029;-38
2023/01/18 05:43:24;;;;;;;12.27;5.53;;;;;;;-143.48;80.49;118439.88;5034776;28;20021;-38
2023/01/18 05:45:49;;;;;;;11.43;5.75;;;;;;;-143.48;80.78;118439.88;5035072;28;20532;-39
2023/01/18 05:48:15;;;;;;;12.80;5.35;;;;;;;-143.48;81.10;118439.88;5034992;28;20071;-38
2023/01/18 05:50:43;;;;;;;9.65;5.05;;;;;;;-143.48;81.26;118439.88;5016965;28;20063;-39
2023/01/18 05:53:09;;;;;;;8.18;4.93;;;;;;;-143.48;81.65;118439.88;5035060;28;20028;-38
2023/01/18 05:55:34;;;;;;;11.05;5.13;;;;;;;-143.48;81.67;118439.88;5016798;28;20025;-38
2023/01/18 05:58:00;;;;;;;8.63;4.97;;;;;;;-143.48;81.60;118439.88;5034399;28;20037;-38
2023/01/18 06:00:26;;;;;;;9.57;5.30;;;;;;;-143.48;81.21;118439.88;5034992;28;20056;-39
2023/01/18 06:02:52;;;;;;;13.82;5.50;;;;;;;-143.48;81.15;118439.88;5034387;28;20030;-38
2023/01/18 06:05:18;;;;;;;11.38;5.65;;;;;;;-143.48;81.11;118439.88;5034393;28;20032;-38
2023/01/18 06:07:43;;;;;;;11.63;5.22;;;;;;;-143.48;80.57;118439.88;5034656;28;20029;-38
2023/01/18 06:10:09;;;;;;;13.77;5.25;;;;;;;-143.48;81.20;118439.88;5034602;28;20032;-38
2023/01/18 06:12:34;;;;;;;9.65;5.30;;;;;;;-143.48;81.58;118439.88;5034251;28;20475;-38
2023/01/18 06:14:59;;;;;;;11.98;5.50;;;;;;;-143.48;81.03;118439.88;5034217;28;20021;-39
2023/01/18 06:17:25;;;;;;;8.95;5.05;;;;;;;-143.48;81.36;118439.88;5034174;28;20064;-38
2023/01/18 06:19:51;;;;;;;9.90;5.15;;;;;;;-143.48;80.99;118439.88;5016353;28;20425;-39
2023/01/18 06:22:16;;;;;;;12.07;5.22;;;;;;;-143.48;81.39;118439.88;5034665;28;20057;-38
2023/01/18 06:24:41;;;;;;;10.43;5.07;;;;;;;-143.48;81.47;118439.88;5034277;28;20058;-45
2023/01/18 06:27:07;;;;;;;12.48;5.63;;;;;;;-143.48;81.23;118439.88;5034324;28;20025;-38
2023/01/18 06:29:32;;;;;;;10.60;5.68;;;;;;;-143.48;81.11;118439.88;5034234;28;20028;-38
2023/01/18 06:31:57;;;;;;;11.50;5.90;;;;;;;-143.48;81.71;118439.88;5033785;28;20375;-38
2023/01/18 06:34:23;;;;;;;9.95;5.43;;;;;;;-143.48;81.94;118439.88;5034329;28;20075;-39
2023/01/18 06:36:48;;;;;;;15.23;5.40;;;;;;;-143.48;82.07;118439.88;5033986;28;20104;-39
2023/01/18 06:39:13;;;;;;;14.52;6.38;;;;;;;-143.48;81.82;118439.88;5034158;28;20113;-39
2023/01/18 06:41:38;;;;;;;11.98;5.50;;;;;;;-143.48;82.28;118439.88;5034098;28;20029;-39
2023/01/18 06:44:05;;;;;;;10.13;5.25;;;;;;;-143.48;82.07;118439.88;5016483;28;20037;-38
2023/01/18 06:46:30;;;;;;;9.48;4.85;;;;;;;-143.48;82.15;118439.88;5015973;28;20493;-39
2023/01/18 06:48:56;;;;;;;10.32;5.65;;;;;;;-143.48;82.57;118439.88;5033634;28;20022;-39
2023/01/18 06:51:21;;;;;;;10.90;5.68;;;;;;;-143.48;82.37;118439.88;5033567;28;20595;-39
2023/01/18 06:53:48;;;;;;;10.38;5.40;;;;;;;-143.48;82.49;118439.88;5016094;28;20029;-38
2023/01/18 06:56:13;;;;;;;9.85;5.22;;;;;;;-143.48;82.70;118439.88;5033800;28;20488;-38
2023/01/18 06:58:39;;;;;;;9.88;5.28;;;;;;;-143.48;83.24;118439.88;5033351;28;20061;-39
2023/01/18 07:01:05;;;;;;;12.70;5.65;;;;;;;-143.48;82.73;118439.88;5033509;28;20096;-39
2023/01/18 07:03:31;;;;;;;10.40;5.32;;;;;;;-143.48;82.43;118439.88;5033432;28;20408;-38
2023/01/18 07:05:59;;;;;;;12.48;5.40;;;;;;;-143.48;82.67;118439.88;5033637;28;20376;-39
2023/01/18 07:08:26;;;;;;;15.45;6.15;;;;;;;-143.48;83.27;118439.88;5033501;28;20021;-38
2023/01/18 07:10:54;;;;;;;13.27;5.88;;;;;;;-143.48;83.17;118439.88;5033363;28;20548;-39
2023/01/18 07:13:19;;;;;;;11.43;5.32;;;;;;;-143.48;82.64;118439.88;5033751;28;20021;-39
2023/01/18 07:15:50;;;;;;;10.00;5.63;;;;;;;-143.48;82.82;118439.88;5033268;28;20083;-38
2023/01/18 07:18:16;;;;;;;11.48;5.63;;;;;;;-143.48;82.75;118439.88;5033145;28;20113;-38
2023/01/18 07:20:41;;;;;;;12.90;6.13;;;;;;;-143.48;82.89;118439.88;5032745;28;20061;-39
2023/01/18 07:23:06;;;;;;;14.68;6.10;;;;;;;-143.48;82.51;118439.88;5014196;28;20028;-39
2023/01/18 07:25:32;;;;;;;10.82;5.75;;;;;;;-143.48;82.51;118439.88;5033212;28;20022;-39
2023/01/18 07:27:57;;;;;;;10.95;5.57;;;;;;;-143.48;82.31;118439.88;5014164;28;20017;-39
2023/01/18 07:30:22;;;;;;;10.23;5.38;;;;;;;-143.48;82.72;118439.88;5032504;28;20026;-39
2023/01/18 07:32:50;;;;;;;11.80;5.80;;;;;;;-143.48;82.79;118439.88;5017725;28;20022;-39
2023/01/18 07:35:23;;;;;;;11.65;5.38;;;;;;;-143.48;82.72;118439.88;5018086;28;20021;-39
2023/01/18 07:37:52;;;;;;;8.55;4.88;;;;;;;-143.48;83.01;118439.88;5035876;28;20700;-38
2023/01/18 07:40:22;;;;;;;10.05;5.38;;;;;;;-143.48;82.17;118439.88;5036103;28;20025;-39
2023/01/18 07:42:48;;;;;;;11.02;5.55;;;;;;;-143.48;82.09;118439.88;5035653;28;20468;-39
2023/01/18 07:45:14;;;;;;;11.18;5.28;;;;;;;-143.48;82.46;118439.88;5036851;28;20025;-39
2023/01/18 07:47:45;;;;;;;14.63;5.35;;;;;;;-143.48;81.68;118439.88;5037664;28;20033;-44
2023/01/18 07:50:10;;;;;;;13.43;5.07;;;;;;;-143.48;81.99;118439.88;5036958;28;20479;-38
2023/01/18 07:52:35;;;;;;;10.32;5.30;;;;;;;-143.48;81.82;118439.88;5036684;28;20022;-38
2023/01/18 07:55:01;;;;;;;15.32;5.47;;;;;;;-143.48;81.86;118439.88;5037077;28;20032;-38
2023/01/18 07:57:27;;;;;;;15.55;5.13;;;;;;;-143.48;81.48;118439.88;5036812;28;20071;-39
2023/01/18 07:59:52;;;;;;;13.52;5.43;;;;;;;-143.48;81.33;118439.88;5036655;28;20049;-39
2023/01/18 08:02:18;;;;;;;9.90;5.25;;;;;;;-143.48;80.84;118439.88;5018982;28;20361;-39
2023/01/18 08:04:48;;;;;;;10.13;5.10;;;;;;;-143.48;80.80;118439.88;5036701;28;20425;-39
2023/01/18 08:07:14;;;;;;;13.43;5.07;;;;;;;-143.48;80.49;118439.88;5036736;28;20531;-39
2023/01/18 08:09:39;;;;;;;9.07;4.97;;;;;;;-143.48;80.27;118439.88;5036986;28;20103;-39
2023/01/18 08:12:06;;;;;;;11.75;5.55;;;;;;;-143.48;80.47;118439.88;5036915;28;20057;-39
2023/01/18 08:14:32;;;;;;;9.02;4.78;;;;;;;-143.48;80.61;118439.88;5036602;28;20025;-39
2023/01/18 08:16:57;;;;;;;10.10;4.93;;;;;;;-143.48;80.79;118439.88;5018841;28;20036;-39
2023/01/18 08:19:22;;;;;;;12.85;4.88;;;;;;;-143.48;80.44;118439.88;5034947;28;20020;-39
2023/01/18 08:21:48;;;;;;;14.43;5.53;;;;;;;-143.48;80.29;118439.88;5035991;28;20036;-39
2023/01/18 08:24:13;;;;;;;12.65;5.20;;;;;;;-143.48;80.49;118439.88;5018416;28;20025;-39
2023/01/18 08:26:38;;;;;;;10.68;5.35;;;;;;;-143.48;80.21;118439.88;5036032;28;20026;-39
2023/01/18 08:29:05;;;;;;;9.25;4.88;;;;;;;-143.48;79.71;118439.88;5036286;28;20060;-39
2023/01/18 08:31:30;;;;;;;10.30;5.60;;;;;;;-143.48;79.95;118439.88;5036231;28;20526;-39
2023/01/18 08:33:56;;;;;;;10.38;5.60;;;;;;;-143.48;79.68;118439.88;5037289;28;20013;-39
2023/01/18 08:36:24;;;;;;;12.38;5.63;;;;;;;-143.48;79.73;118439.88;5036374;28;20025;-38
2023/01/18 08:38:51;;;;;;;9.35;5.47;;;;;;;-143.48;80.13;118439.88;5036015;28;20028;-39
2023/01/18 08:41:18;;;;;;;12.60;5.82;;;;;;;-143.48;79.30;118439.88;5035471;28;20029;-38
2023/01/18 08:43:46;;;;;;;14.23;6.00;;;;;;;-143.48;79.35;118439.88;5036459;28;20029;-39
2023/01/18 08:46:11;;;;;;;12.43;5.40;;;;;;;-143.48;78.85;118439.88;5035963;28;20032;-38
2023/01/18 08:48:37;;;;;;;10.30;5.10;;;;;;;-143.48;79.27;118439.88;5035854;28;20025;-38
2023/01/18 08:51:03;;;;;;;10.90;5.32;;;;;;;-143.48;79.70;118439.88;5035565;28;20064;-38
2023/01/18 08:53:29;;;;;;;10.38;5.10;;;;;;;-143.48;78.62;118439.88;5035555;28;20104;-38
2023/01/18 08:55:55;;;;;;;12.02;5.40;;;;;;;-143.48;78.41;118439.88;5035498;28;20460;-38
2023/01/18 08:58:20;;;;;;;14.23;5.95;;;;;;;-143.48;78.37;118439.88;5035627;28;20125;-38
2023/01/18 09:00:49;;;;;;;15.25;6.13;;;;;;;-143.48;77.72;118439.88;5035533;28;20029;-38
2023/01/18 09:03:17;;;;;;;11.02;5.28;;;;;;;-143.48;77.88;118439.88;5035636;28;20036;-39
2023/01/18 09:05:43;;;;;;;9.23;4.85;;;;;;;-143.48;77.25;118439.88;5035538;28;20061;-38
2023/01/18 09:08:08;;;;;;;10.55;5.28;;;;;;;-143.48;77.09;118439.88;5035925;28;20049;-39
2023/01/18 09:10:36;;;;;;;12.23;5.50;;;;;;;-143.48;77.33;118439.88;5035862;28;20092;-39
2023/01/18 09:13:04;;;;;;;10.63;5.55;;;;;;;-143.48;76.91;118439.88;5035654;28;20029;-38
2023/01/18 09:15:29;;;;;;;8.80;5.32;;;;;;;-143.48;77.09;118439.88;5035451;28;20040;-38
2023/01/18 09:17:55;;;;;;;13.43;5.78;;;;;;;-143.48;76.39;118439.88;5035278;28;20017;-38
2023/01/18 09:20:20;;;;;;;12.57;5.72;;;;;;;-143.48;76.90;118439.88;5035292;28;20053;-38
2023/01/18 09:22:46;;;;;;;10.35;5.30;;;;;;;-143.48;76.74;118439.88;5035157;28;20037;-38
2023/01/18 09:25:12;;;;;;;9.10;5.20;;;;;;;-143.48;76.46;118439.88;5034075;28;20035;-38
2023/01/18 09:27:37;;;;;;;9.32;5.50;;;;;;;-143.48;75.74;118439.88;5034709;28;20034;-39
2023/01/18 09:30:05;;;;;;;11.23;5.75;;;;;;;-143.48;76.05;118439.88;5035145;28;20057;-37
2023/01/18 09:32:30;;;;;;;8.35;5.30;;;;;;;-143.48;76.33;118439.88;5034966;28;20041;-37
2023/01/18 09:34:55;;;;;;;9.07;5.22;;;;;;;-143.48;75.71;118439.88;5034963;28;20053;-37
2023/01/18 09:37:21;;;;;;;13.45;5.65;;;;;;;-143.48;75.43;118439.88;5034870;28;20029;-37
2023/01/18 09:39:47;;;;;;;13.55;5.50;;;;;;;-143.48;75.62;118439.88;5034406;28;20380;-37
2023/01/18 09:42:19;;;;;;;10.55;5.63;;;;;;;-143.48;75.33;118439.88;5034417;28;20026;-38
2023/01/18 09:44:52;;;;;;;11.75;6.03;;;;;;;-143.48;74.93;118439.88;5034293;28;20037;-37
2023/01/18 09:47:33;;;;;;;9.73;5.32;;;;;;;-143.48;75.26;118439.88;5034390;28;20053;-38
2023/01/18 09:50:09;;;;;;;10.15;5.35;;;;;;;-143.48;74.89;118439.88;5034517;28;20384;-38
2023/01/18 09:52:37;;;;;;;12.68;5.22;;;;;;;-143.48;74.28;118439.88;5033538;28;20021;-38
2023/01/18 09:55:07;;;;;;;10.60;5.90;;;;;;;-143.48;74.33;118439.88;5034363;28;20021;-38
2023/01/18 09:57:54;;;;;;;8.98;5.30;;;;;;;-143.48;74.21;118439.88;5034721;28;20027;-38
2023/01/18 10:00:24;;;;;;;10.90;5.53;;;;;;;-143.48;74.34;118439.88;5034417;28;20030;-38
2023/01/18 10:02:59;;;;;;;9.63;5.32;;;;;;;-143.48;74.33;118439.88;5034379;28;20112;-39
2023/01/18 10:05:28;;;;;;;11.98;5.85;;;;;;;-143.48;74.04;118439.88;5034335;28;20430;-39
2023/01/18 10:08:02;;;;;;;11.10;5.78;;;;;;;-143.48;72.06;118439.88;5034885;28;20025;-39
2023/01/18 10:10:37;;;;;;;9.35;5.20;;;;;;;-143.48;60.28;118439.88;5016757;28;20026;-39
2023/01/18 10:13:29;;;;;;;8.07;5.00;;;;;;;-143.48;49.28;118439.88;5016514;28;20023;-39
2023/01/18 10:15:55;;;;;;;10.98;5.00;;;;;;;-143.48;45.74;118439.88;5023564;28;20392;-39
2023/01/18 10:18:21;;;;;;;10.10;4.72;;;;;;;-143.48;46.21;118439.88;5034669;28;20349;-26
2023/01/18 10:20:55;;;;;;;8.57;4.55;;;;;;;-143.48;45.38;118439.88;5034053;28;20024;-27
2023/01/18 10:23:30;;;;;;;7.10;4.07;;;;;;;-143.48;43.51;118439.88;5033941;28;20025;-27
2023/01/18 10:26:01;;;;;;;7.45;4.20;;;;;;;-143.48;41.88;118439.88;5034589;28;20029;-27
2023/01/18 10:28:31;;;;;;;9.93;3.90;;;;;;;-143.48;42.46;118439.88;5033952;28;20025;-27
2023/01/18 10:31:14;;;;;;;8.63;3.90;;;;;;;-143.48;40.27;118439.88;5034240;28;20484;-27
2023/01/18 10:33:42;;;;;;;9.07;4.07;;;;;;;-143.48;40.25;118439.88;5034209;28;20421;-27
2023/01/18 10:36:15;;;;;;;8.35;4.10;;;;;;;-143.48;39.39;118439.88;5034656;28;20452;-27
2023/01/18 10:38:42;;;;;;;7.55;3.58;;;;;;;-143.48;40.08;118439.88;5033589;28;20021;-28
2023/01/18 10:41:16;;;;;;;8.23;3.83;;;;;;;-143.48;39.50;118439.88;5034147;28;20369;-27
2023/01/18 10:43:43;;;;;;;8.88;4.20;;;;;;;-143.48;37.55;118439.88;5032462;28;20029;-27
2023/01/18 10:46:14;;;;;;;8.02;3.63;;;;;;;-143.48;38.57;118439.88;5033765;28;20033;-27
2023/01/18 10:48:44;;;;;;;11.13;3.42;;;;;;;-143.48;38.92;118439.88;5033853;28;20120;-27
2023/01/18 10:51:24;;;;;;;9.50;3.65;;;;;;;-143.48;38.01;118439.88;5033552;28;20021;-27
2023/01/18 10:53:50;;;;;;;7.90;3.33;;;;;;;-143.48;38.30;118439.88;5016071;28;20097;-27
2023/01/18 10:56:17;;;;;;;6.32;3.10;;;;;;;-143.48;37.64;118439.88;5033955;28;20124;-28
2023/01/18 10:58:49;;;;;;;6.40;3.30;;;;;;;-143.48;39.12;118439.88;5033559;28;20440;-27
2023/01/18 11:01:18;;;;;;;8.10;3.42;;;;;;;-143.48;38.63;118439.88;5033955;28;20365;-27
2023/01/18 11:04:06;;;;;;;6.00;3.75;;;;;;;-143.48;37.67;118439.88;5034084;28;20049;-27
2023/01/18 11:06:53;;;;;;;9.70;3.78;;;;;;;-143.48;37.00;118439.88;5033420;28;20096;-28
2023/01/18 11:09:42;;;;;;;7.13;3.72;;;;;;;-143.48;37.36;118439.88;4999678;28;20037;-28
2023/01/18 11:12:40;;;;;;;9.60;3.67;;;;;;;-143.48;37.77;118439.88;5032822;28;20487;-27
2023/01/18 11:15:14;;;;;;;6.43;3.83;;;;;;;-143.48;38.68;118439.88;5033587;28;20029;-27
2023/01/18 11:17:43;;;;;;;6.65;3.90;;;;;;;-143.48;47.39;118439.88;5033271;28;20025;-27
2023/01/18 11:20:22;;;;;;;8.77;4.25;;;;;;;-143.48;53.39;118439.88;5015584;28;20021;-26
2023/01/18 11:23:02;;;;;;;9.38;4.15;;;;;;;-143.48;56.21;118439.88;5033047;28;20049;-26
2023/01/18 11:25:40;;;;;;;10.85;4.40;;;;;;;-143.48;57.60;118439.88;5033803;28;20124;-27
2023/01/18 11:28:15;;;;;;;9.07;4.35;;;;;;;-143.48;47.17;118439.88;5033889;28;20104;-27
2023/01/18 11:30:51;;;;;;;7.82;4.00;;;;;;;-143.48;41.60;118439.88;5033644;28;20511;-27
2023/01/18 11:33:19;;;;;;;11.10;4.50;;;;;;;-143.48;39.38;118439.88;5033068;28;20044;-27
2023/01/18 11:35:45;;;;;;;8.27;4.18;;;;;;;-143.48;41.20;118439.88;5033686;28;20104;-27
2023/01/18 11:38:17;;;;;;;11.88;4.10;;;;;;;-143.48;43.16;118439.88;5033168;28;20030;-27
2023/01/18 11:40:44;;;;;;;9.13;3.97;;;;;;;-143.48;46.08;118439.88;5033191;28;20420;-27
2023/01/18 11:43:23;;;;;;;11.52;3.90;;;;;;;-143.48;50.14;118439.88;5032981;28;20083;-27
2023/01/18 11:46:30;;;;;;;8.38;4.07;;;;;;;-143.48;55.27;118439.88;5033196;28;20040;-26
2023/01/18 11:49:11;;;;;;;6.22;4.10;;;;;;;-143.48;56.66;118439.88;5019845;28;20076;-27
2023/01/18 11:51:44;;;;;;;11.02;4.72;;;;;;;-143.48;58.26;118439.88;5033382;28;20044;-26